sensor_id;sensor_type;location;lat;lon;timestamp;P1;durP1;ratioP1;P2;durP2;ratioP2
32196;SDS011;18697;42.770;23.400;2023-03-23T00:02:14;39.40;;;23.38;;
32196;SDS011;18697;42.770;23.400;2023-03-23T00:04:39;44.03;;;26.02;;
32196;SDS011;18697;42.770;23.400;2023-03-23T00:07:07;49.25;;;25.60;;
32196;SDS011;18697;42.770;23.400;2023-03-23T00:09:33;74.90;;;36.05;;
32196;SDS011;18697;42.770;23.400;2023-03-23T00:11:59;45.08;;;24.33;;
32196;SDS011;18697;42.770;23.400;2023-03-23T00:14:31;42.45;;;25.10;;
32196;SDS011;18697;42.770;23.400;2023-03-23T00:17:06;59.58;;;24.85;;
32196;SDS011;18697;42.770;23.400;2023-03-23T00:19:36;78.03;;;23.92;;
32196;SDS011;18697;42.770;23.400;2023-03-23T00:22:11;63.40;;;21.98;;
32196;SDS011;18697;42.770;23.400;2023-03-23T00:24:37;73.40;;;24.70;;
32196;SDS011;18697;42.770;23.400;2023-03-23T00:27:03;56.78;;;23.98;;
32196;SDS011;18697;42.770;23.400;2023-03-23T00:29:28;58.92;;;24.83;;
32196;SDS011;18697;42.770;23.400;2023-03-23T00:31:53;81.60;;;39.63;;
32196;SDS011;18697;42.770;23.400;2023-03-23T00:34:22;65.13;;;25.48;;
32196;SDS011;18697;42.770;23.400;2023-03-23T00:36:50;65.85;;;27.23;;
32196;SDS011;18697;42.770;23.400;2023-03-23T00:39:18;54.33;;;27.50;;
32196;SDS011;18697;42.770;23.400;2023-03-23T00:41:44;75.47;;;25.77;;
32196;SDS011;18697;42.770;23.400;2023-03-23T00:44:11;48.05;;;23.45;;
32196;SDS011;18697;42.770;23.400;2023-03-23T00:46:48;61.95;;;25.30;;
32196;SDS011;18697;42.770;23.400;2023-03-23T00:49:18;56.28;;;24.80;;
32196;SDS011;18697;42.770;23.400;2023-03-23T00:51:45;74.32;;;24.73;;
32196;SDS011;18697;42.770;23.400;2023-03-23T00:54:11;81.75;;;31.73;;
32196;SDS011;18697;42.770;23.400;2023-03-23T00:56:37;67.18;;;26.27;;
32196;SDS011;18697;42.770;23.400;2023-03-23T00:59:04;54.88;;;26.42;;
32196;SDS011;18697;42.770;23.400;2023-03-23T01:01:29;64.22;;;24.92;;
32196;SDS011;18697;42.770;23.400;2023-03-23T01:03:55;49.72;;;25.35;;
32196;SDS011;18697;42.770;23.400;2023-03-23T01:06:26;48.60;;;24.67;;
32196;SDS011;18697;42.770;23.400;2023-03-23T01:08:52;63.30;;;30.42;;
32196;SDS011;18697;42.770;23.400;2023-03-23T01:11:19;64.22;;;29.95;;
32196;SDS011;18697;42.770;23.400;2023-03-23T01:13:44;54.03;;;28.30;;
32196;SDS011;18697;42.770;23.400;2023-03-23T01:16:10;53.28;;;28.30;;
32196;SDS011;18697;42.770;23.400;2023-03-23T01:18:36;45.42;;;26.45;;
32196;SDS011;18697;42.770;23.400;2023-03-23T01:21:12;59.38;;;28.98;;
32196;SDS011;18697;42.770;23.400;2023-03-23T01:23:40;61.85;;;30.17;;
32196;SDS011;18697;42.770;23.400;2023-03-23T01:26:06;55.90;;;27.70;;
32196;SDS011;18697;42.770;23.400;2023-03-23T01:28:34;53.00;;;26.42;;
32196;SDS011;18697;42.770;23.400;2023-03-23T01:31:03;41.28;;;24.10;;
32196;SDS011;18697;42.770;23.400;2023-03-23T01:33:33;36.53;;;22.77;;
32196;SDS011;18697;42.770;23.400;2023-03-23T01:36:03;36.50;;;22.13;;
32196;SDS011;18697;42.770;23.400;2023-03-23T01:38:31;51.60;;;26.92;;
32196;SDS011;18697;42.770;23.400;2023-03-23T01:40:57;46.90;;;25.45;;
32196;SDS011;18697;42.770;23.400;2023-03-23T01:43:22;48.88;;;24.98;;
32196;SDS011;18697;42.770;23.400;2023-03-23T01:45:48;52.20;;;26.80;;
32196;SDS011;18697;42.770;23.400;2023-03-23T01:48:17;43.33;;;24.25;;
32196;SDS011;18697;42.770;23.400;2023-03-23T01:50:53;45.08;;;24.75;;
32196;SDS011;18697;42.770;23.400;2023-03-23T01:53:25;46.83;;;25.60;;
32196;SDS011;18697;42.770;23.400;2023-03-23T01:55:53;60.10;;;26.25;;
32196;SDS011;18697;42.770;23.400;2023-03-23T01:58:23;51.03;;;25.58;;
32196;SDS011;18697;42.770;23.400;2023-03-23T02:00:52;73.95;;;27.55;;
32196;SDS011;18697;42.770;23.400;2023-03-23T02:03:20;56.95;;;25.23;;
32196;SDS011;18697;42.770;23.400;2023-03-23T02:05:48;53.67;;;26.27;;
32196;SDS011;18697;42.770;23.400;2023-03-23T02:08:15;50.08;;;25.63;;
32196;SDS011;18697;42.770;23.400;2023-03-23T02:10:43;95.22;;;26.13;;
32196;SDS011;18697;42.770;23.400;2023-03-23T02:13:09;59.40;;;28.52;;
32196;SDS011;18697;42.770;23.400;2023-03-23T02:18:31;91.93;;;38.03;;
32196;SDS011;18697;42.770;23.400;2023-03-23T02:26:38;76.75;;;28.75;;
32196;SDS011;18697;42.770;23.400;2023-03-23T02:32:01;75.85;;;28.70;;
32196;SDS011;18697;42.770;23.400;2023-03-23T02:34:42;63.13;;;26.45;;
32196;SDS011;18697;42.770;23.400;2023-03-23T02:37:14;52.53;;;27.35;;
32196;SDS011;18697;42.770;23.400;2023-03-23T02:42:13;65.35;;;26.02;;
32196;SDS011;18697;42.770;23.400;2023-03-23T02:44:44;47.88;;;24.75;;
32196;SDS011;18697;42.770;23.400;2023-03-23T02:47:13;64.43;;;23.10;;
32196;SDS011;18697;42.770;23.400;2023-03-23T02:49:42;41.58;;;22.05;;
32196;SDS011;18697;42.770;23.400;2023-03-23T02:52:11;36.25;;;19.88;;
32196;SDS011;18697;42.770;23.400;2023-03-23T02:54:41;42.45;;;20.45;;
32196;SDS011;18697;42.770;23.400;2023-03-23T02:57:09;43.15;;;24.77;;
32196;SDS011;18697;42.770;23.400;2023-03-23T02:59:35;53.33;;;21.50;;
32196;SDS011;18697;42.770;23.400;2023-03-23T03:02:07;34.15;;;20.02;;
32196;SDS011;18697;42.770;23.400;2023-03-23T03:04:37;54.55;;;21.23;;
32196;SDS011;18697;42.770;23.400;2023-03-23T03:09:48;47.90;;;19.80;;
32196;SDS011;18697;42.770;23.400;2023-03-23T03:12:36;39.25;;;20.48;;
32196;SDS011;18697;42.770;23.400;2023-03-23T03:17:55;86.55;;;33.55;;
32196;SDS011;18697;42.770;23.400;2023-03-23T03:20:30;72.93;;;30.77;;
32196;SDS011;18697;42.770;23.400;2023-03-23T03:22:59;73.72;;;32.53;;
32196;SDS011;18697;42.770;23.400;2023-03-23T03:25:26;65.10;;;33.10;;
32196;SDS011;18697;42.770;23.400;2023-03-23T03:27:53;51.97;;;28.55;;
32196;SDS011;18697;42.770;23.400;2023-03-23T03:30:21;50.97;;;27.17;;
32196;SDS011;18697;42.770;23.400;2023-03-23T03:32:53;46.38;;;25.20;;
32196;SDS011;18697;42.770;23.400;2023-03-23T03:35:20;53.65;;;28.58;;
32196;SDS011;18697;42.770;23.400;2023-03-23T03:37:47;52.45;;;28.38;;
32196;SDS011;18697;42.770;23.400;2023-03-23T03:40:17;44.40;;;24.73;;
32196;SDS011;18697;42.770;23.400;2023-03-23T03:42:44;39.92;;;24.42;;
32196;SDS011;18697;42.770;23.400;2023-03-23T03:45:11;41.35;;;24.77;;
32196;SDS011;18697;42.770;23.400;2023-03-23T03:47:39;38.33;;;24.67;;
32196;SDS011;18697;42.770;23.400;2023-03-23T03:50:04;51.70;;;29.67;;
32196;SDS011;18697;42.770;23.400;2023-03-23T03:52:31;65.40;;;37.83;;
32196;SDS011;18697;42.770;23.400;2023-03-23T03:54:58;65.28;;;40.90;;
32196;SDS011;18697;42.770;23.400;2023-03-23T03:57:23;52.75;;;31.00;;
32196;SDS011;18697;42.770;23.400;2023-03-23T03:59:49;43.53;;;27.35;;
32196;SDS011;18697;42.770;23.400;2023-03-23T04:02:15;54.22;;;24.02;;
32196;SDS011;18697;42.770;23.400;2023-03-23T04:04:45;57.17;;;26.58;;
32196;SDS011;18697;42.770;23.400;2023-03-23T04:07:11;41.60;;;24.33;;
32196;SDS011;18697;42.770;23.400;2023-03-23T04:09:39;51.22;;;26.23;;
32196;SDS011;18697;42.770;23.400;2023-03-23T04:12:05;55.30;;;33.00;;
32196;SDS011;18697;42.770;23.400;2023-03-23T04:14:31;108.30;;;57.35;;
32196;SDS011;18697;42.770;23.400;2023-03-23T04:16:56;43.80;;;25.02;;
32196;SDS011;18697;42.770;23.400;2023-03-23T04:19:22;55.90;;;34.30;;
32196;SDS011;18697;42.770;23.400;2023-03-23T04:21:48;65.93;;;37.15;;
32196;SDS011;18697;42.770;23.400;2023-03-23T04:24:14;71.60;;;42.22;;
32196;SDS011;18697;42.770;23.400;2023-03-23T04:26:40;65.95;;;37.13;;
32196;SDS011;18697;42.770;23.400;2023-03-23T04:29:07;48.50;;;30.15;;
32196;SDS011;18697;42.770;23.400;2023-03-23T04:31:33;35.45;;;22.08;;
32196;SDS011;18697;42.770;23.400;2023-03-23T04:33:59;40.42;;;24.13;;
32196;SDS011;18697;42.770;23.400;2023-03-23T04:36:26;38.20;;;23.98;;
32196;SDS011;18697;42.770;23.400;2023-03-23T04:38:53;39.90;;;23.25;;
32196;SDS011;18697;42.770;23.400;2023-03-23T04:41:20;54.58;;;28.52;;
32196;SDS011;18697;42.770;23.400;2023-03-23T04:43:46;51.92;;;28.67;;
32196;SDS011;18697;42.770;23.400;2023-03-23T04:46:17;47.47;;;26.73;;
32196;SDS011;18697;42.770;23.400;2023-03-23T04:48:44;45.33;;;27.02;;
32196;SDS011;18697;42.770;23.400;2023-03-23T04:51:09;42.25;;;24.98;;
32196;SDS011;18697;42.770;23.400;2023-03-23T04:53:37;43.72;;;26.42;;
32196;SDS011;18697;42.770;23.400;2023-03-23T04:56:03;44.15;;;25.45;;
32196;SDS011;18697;42.770;23.400;2023-03-23T04:58:28;47.78;;;26.85;;
32196;SDS011;18697;42.770;23.400;2023-03-23T05:00:54;48.38;;;28.88;;
32196;SDS011;18697;42.770;23.400;2023-03-23T05:03:20;51.45;;;29.45;;
32196;SDS011;18697;42.770;23.400;2023-03-23T05:05:46;52.95;;;29.63;;
32196;SDS011;18697;42.770;23.400;2023-03-23T05:08:16;52.90;;;28.83;;
32196;SDS011;18697;42.770;23.400;2023-03-23T05:10:49;48.72;;;29.38;;
32196;SDS011;18697;42.770;23.400;2023-03-23T05:13:15;45.45;;;28.00;;
32196;SDS011;18697;42.770;23.400;2023-03-23T05:15:40;45.22;;;24.92;;
32196;SDS011;18697;42.770;23.400;2023-03-23T05:18:06;40.38;;;24.25;;
32196;SDS011;18697;42.770;23.400;2023-03-23T05:20:31;41.90;;;24.77;;
32196;SDS011;18697;42.770;23.400;2023-03-23T05:22:58;43.63;;;24.88;;
32196;SDS011;18697;42.770;23.400;2023-03-23T05:25:24;48.50;;;26.55;;
32196;SDS011;18697;42.770;23.400;2023-03-23T05:27:49;49.10;;;25.25;;
32196;SDS011;18697;42.770;23.400;2023-03-23T05:30:17;46.60;;;25.80;;
32196;SDS011;18697;42.770;23.400;2023-03-23T05:32:44;42.38;;;24.50;;
32196;SDS011;18697;42.770;23.400;2023-03-23T05:35:10;45.28;;;24.58;;
32196;SDS011;18697;42.770;23.400;2023-03-23T05:37:37;48.28;;;26.80;;
32196;SDS011;18697;42.770;23.400;2023-03-23T05:40:03;40.88;;;24.50;;
32196;SDS011;18697;42.770;23.400;2023-03-23T05:42:34;45.80;;;23.98;;
32196;SDS011;18697;42.770;23.400;2023-03-23T05:45:04;49.15;;;24.42;;
32196;SDS011;18697;42.770;23.400;2023-03-23T05:47:30;51.38;;;27.13;;
32196;SDS011;18697;42.770;23.400;2023-03-23T05:49:56;61.10;;;28.42;;
32196;SDS011;18697;42.770;23.400;2023-03-23T05:52:22;51.40;;;26.10;;
32196;SDS011;18697;42.770;23.400;2023-03-23T05:54:49;58.75;;;28.60;;
32196;SDS011;18697;42.770;23.400;2023-03-23T05:57:15;62.00;;;28.75;;
32196;SDS011;18697;42.770;23.400;2023-03-23T05:59:40;47.67;;;25.60;;
32196;SDS011;18697;42.770;23.400;2023-03-23T06:02:06;59.45;;;27.77;;
32196;SDS011;18697;42.770;23.400;2023-03-23T06:04:31;47.42;;;25.88;;
32196;SDS011;18697;42.770;23.400;2023-03-23T06:06:58;71.07;;;31.48;;
32196;SDS011;18697;42.770;23.400;2023-03-23T06:09:24;62.45;;;30.63;;
32196;SDS011;18697;42.770;23.400;2023-03-23T06:11:50;43.58;;;24.80;;
32196;SDS011;18697;42.770;23.400;2023-03-23T06:16:42;66.15;;;27.73;;
32196;SDS011;18697;42.770;23.400;2023-03-23T06:19:07;54.08;;;26.85;;
32196;SDS011;18697;42.770;23.400;2023-03-23T06:21:33;45.45;;;24.73;;
32196;SDS011;18697;42.770;23.400;2023-03-23T06:23:59;43.42;;;22.23;;
32196;SDS011;18697;42.770;23.400;2023-03-23T06:26:28;37.35;;;21.60;;
32196;SDS011;18697;42.770;23.400;2023-03-23T06:28:57;50.13;;;24.33;;
32196;SDS011;18697;42.770;23.400;2023-03-23T06:31:23;35.72;;;22.77;;
32196;SDS011;18697;42.770;23.400;2023-03-23T06:33:49;34.08;;;20.50;;
32196;SDS011;18697;42.770;23.400;2023-03-23T06:36:15;30.90;;;18.13;;
32196;SDS011;18697;42.770;23.400;2023-03-23T06:38:41;30.00;;;20.52;;
32196;SDS011;18697;42.770;23.400;2023-03-23T06:41:07;30.88;;;19.08;;
32196;SDS011;18697;42.770;23.400;2023-03-23T06:43:33;34.30;;;19.70;;
32196;SDS011;18697;42.770;23.400;2023-03-23T06:46:00;30.17;;;19.58;;
32196;SDS011;18697;42.770;23.400;2023-03-23T06:48:26;30.02;;;20.08;;
32196;SDS011;18697;42.770;23.400;2023-03-23T06:50:52;31.77;;;19.20;;
32196;SDS011;18697;42.770;23.400;2023-03-23T06:53:17;29.92;;;19.08;;
32196;SDS011;18697;42.770;23.400;2023-03-23T06:55:45;29.10;;;19.02;;
32196;SDS011;18697;42.770;23.400;2023-03-23T06:58:11;27.50;;;18.50;;
32196;SDS011;18697;42.770;23.400;2023-03-23T07:03:01;29.17;;;19.60;;
32196;SDS011;18697;42.770;23.400;2023-03-23T07:05:27;31.90;;;20.95;;
32196;SDS011;18697;42.770;23.400;2023-03-23T07:07:53;30.27;;;19.38;;
32196;SDS011;18697;42.770;23.400;2023-03-23T07:10:18;30.92;;;19.95;;
32196;SDS011;18697;42.770;23.400;2023-03-23T07:12:44;32.25;;;19.63;;
32196;SDS011;18697;42.770;23.400;2023-03-23T07:15:09;29.08;;;18.42;;
32196;SDS011;18697;42.770;23.400;2023-03-23T07:17:39;27.98;;;18.08;;
32196;SDS011;18697;42.770;23.400;2023-03-23T07:20:05;26.92;;;17.98;;
32196;SDS011;18697;42.770;23.400;2023-03-23T07:22:31;31.23;;;19.45;;
32196;SDS011;18697;42.770;23.400;2023-03-23T07:24:57;27.23;;;18.75;;
32196;SDS011;18697;42.770;23.400;2023-03-23T07:27:22;28.17;;;18.98;;
32196;SDS011;18697;42.770;23.400;2023-03-23T07:29:48;28.70;;;17.38;;
32196;SDS011;18697;42.770;23.400;2023-03-23T07:34:39;27.08;;;17.67;;
32196;SDS011;18697;42.770;23.400;2023-03-23T07:37:05;25.48;;;17.77;;
32196;SDS011;18697;42.770;23.400;2023-03-23T07:39:30;27.30;;;18.45;;
32196;SDS011;18697;42.770;23.400;2023-03-23T07:41:56;32.03;;;18.40;;
32196;SDS011;18697;42.770;23.400;2023-03-23T07:44:22;32.55;;;18.38;;
32196;SDS011;18697;42.770;23.400;2023-03-23T07:46:48;29.83;;;17.88;;
32196;SDS011;18697;42.770;23.400;2023-03-23T07:49:14;33.08;;;18.45;;
32196;SDS011;18697;42.770;23.400;2023-03-23T07:51:40;28.73;;;18.58;;
32196;SDS011;18697;42.770;23.400;2023-03-23T07:56:32;32.72;;;21.05;;
32196;SDS011;18697;42.770;23.400;2023-03-23T07:58:59;32.00;;;22.25;;
32196;SDS011;18697;42.770;23.400;2023-03-23T08:01:25;32.08;;;21.38;;
32196;SDS011;18697;42.770;23.400;2023-03-23T08:03:51;31.98;;;20.35;;
32196;SDS011;18697;42.770;23.400;2023-03-23T08:06:17;34.10;;;21.90;;
32196;SDS011;18697;42.770;23.400;2023-03-23T08:11:08;35.95;;;23.23;;
32196;SDS011;18697;42.770;23.400;2023-03-23T08:15:59;35.13;;;21.42;;
32196;SDS011;18697;42.770;23.400;2023-03-23T08:18:28;35.50;;;23.75;;
32196;SDS011;18697;42.770;23.400;2023-03-23T08:20:55;37.38;;;23.15;;
32196;SDS011;18697;42.770;23.400;2023-03-23T08:23:20;34.85;;;22.80;;
32196;SDS011;18697;42.770;23.400;2023-03-23T08:28:12;32.65;;;20.67;;
32196;SDS011;18697;42.770;23.400;2023-03-23T08:30:39;31.42;;;20.45;;
32196;SDS011;18697;42.770;23.400;2023-03-23T08:33:05;31.13;;;19.55;;
32196;SDS011;18697;42.770;23.400;2023-03-23T08:35:31;34.03;;;22.23;;
32196;SDS011;18697;42.770;23.400;2023-03-23T08:37:57;28.67;;;18.35;;
32196;SDS011;18697;42.770;23.400;2023-03-23T08:40:23;25.15;;;17.77;;
32196;SDS011;18697;42.770;23.400;2023-03-23T08:42:50;26.00;;;16.70;;
32196;SDS011;18697;42.770;23.400;2023-03-23T08:45:18;24.90;;;18.02;;
32196;SDS011;18697;42.770;23.400;2023-03-23T08:47:45;22.90;;;15.65;;
32196;SDS011;18697;42.770;23.400;2023-03-23T08:50:15;18.35;;;13.93;;
32196;SDS011;18697;42.770;23.400;2023-03-23T08:52:43;22.65;;;14.95;;
32196;SDS011;18697;42.770;23.400;2023-03-23T08:55:08;25.77;;;15.95;;
32196;SDS011;18697;42.770;23.400;2023-03-23T08:57:34;24.13;;;17.27;;
32196;SDS011;18697;42.770;23.400;2023-03-23T09:00:01;27.00;;;16.85;;
32196;SDS011;18697;42.770;23.400;2023-03-23T09:02:42;23.17;;;15.90;;
32196;SDS011;18697;42.770;23.400;2023-03-23T09:05:09;26.92;;;18.27;;
32196;SDS011;18697;42.770;23.400;2023-03-23T09:07:37;22.90;;;16.38;;
32196;SDS011;18697;42.770;23.400;2023-03-23T09:10:03;18.67;;;12.77;;
32196;SDS011;18697;42.770;23.400;2023-03-23T09:12:30;24.10;;;14.85;;
32196;SDS011;18697;42.770;23.400;2023-03-23T09:14:55;26.42;;;17.05;;
32196;SDS011;18697;42.770;23.400;2023-03-23T09:17:21;22.17;;;16.60;;
32196;SDS011;18697;42.770;23.400;2023-03-23T09:19:47;20.48;;;14.30;;
32196;SDS011;18697;42.770;23.400;2023-03-23T09:22:12;18.83;;;11.80;;
32196;SDS011;18697;42.770;23.400;2023-03-23T09:24:38;17.52;;;11.30;;
32196;SDS011;18697;42.770;23.400;2023-03-23T09:27:04;19.08;;;11.80;;
32196;SDS011;18697;42.770;23.400;2023-03-23T09:29:30;17.73;;;10.63;;
32196;SDS011;18697;42.770;23.400;2023-03-23T09:31:55;14.98;;;10.07;;
32196;SDS011;18697;42.770;23.400;2023-03-23T09:34:21;17.42;;;10.60;;
32196;SDS011;18697;42.770;23.400;2023-03-23T09:36:47;13.35;;;10.50;;
32196;SDS011;18697;42.770;23.400;2023-03-23T09:39:13;16.75;;;10.60;;
32196;SDS011;18697;42.770;23.400;2023-03-23T09:50:12;10.40;;;7.40;;
32196;SDS011;18697;42.770;23.400;2023-03-23T09:55:17;10.07;;;6.95;;
32196;SDS011;18697;42.770;23.400;2023-03-23T10:00:37;10.32;;;7.35;;
32196;SDS011;18697;42.770;23.400;2023-03-23T10:05:51;12.70;;;9.10;;
32196;SDS011;18697;42.770;23.400;2023-03-23T10:08:35;13.60;;;8.77;;
32196;SDS011;18697;42.770;23.400;2023-03-23T10:11:04;12.90;;;9.35;;
32196;SDS011;18697;42.770;23.400;2023-03-23T10:16:25;12.63;;;8.40;;
32196;SDS011;18697;42.770;23.400;2023-03-23T10:19:03;11.55;;;9.18;;
32196;SDS011;18697;42.770;23.400;2023-03-23T10:21:37;13.80;;;9.57;;
32196;SDS011;18697;42.770;23.400;2023-03-23T10:24:09;12.15;;;8.30;;
32196;SDS011;18697;42.770;23.400;2023-03-23T10:29:31;10.95;;;8.40;;
32196;SDS011;18697;42.770;23.400;2023-03-23T10:32:16;13.63;;;10.00;;
32196;SDS011;18697;42.770;23.400;2023-03-23T10:37:28;12.68;;;9.02;;
32196;SDS011;18697;42.770;23.400;2023-03-23T10:39:59;13.07;;;9.07;;
32196;SDS011;18697;42.770;23.400;2023-03-23T10:42:33;12.82;;;6.95;;
32196;SDS011;18697;42.770;23.400;2023-03-23T10:45:10;15.32;;;10.10;;
32196;SDS011;18697;42.770;23.400;2023-03-23T10:47:44;11.50;;;7.22;;
32196;SDS011;18697;42.770;23.400;2023-03-23T10:50:16;11.02;;;7.85;;
32196;SDS011;18697;42.770;23.400;2023-03-23T10:52:49;9.95;;;7.68;;
32196;SDS011;18697;42.770;23.400;2023-03-23T10:55:19;10.40;;;7.75;;
32196;SDS011;18697;42.770;23.400;2023-03-23T10:57:59;10.88;;;7.70;;
32196;SDS011;18697;42.770;23.400;2023-03-23T11:00:29;11.57;;;7.63;;
32196;SDS011;18697;42.770;23.400;2023-03-23T11:03:03;9.80;;;7.40;;
32196;SDS011;18697;42.770;23.400;2023-03-23T11:05:36;11.90;;;9.13;;
32196;SDS011;18697;42.770;23.400;2023-03-23T11:08:10;7.68;;;6.53;;
32196;SDS011;18697;42.770;23.400;2023-03-23T11:10:42;10.90;;;8.32;;
32196;SDS011;18697;42.770;23.400;2023-03-23T11:13:13;11.13;;;7.80;;
32196;SDS011;18697;42.770;23.400;2023-03-23T11:15:41;10.15;;;7.38;;
32196;SDS011;18697;42.770;23.400;2023-03-23T11:18:12;8.85;;;7.60;;
32196;SDS011;18697;42.770;23.400;2023-03-23T11:23:23;8.70;;;5.78;;
32196;SDS011;18697;42.770;23.400;2023-03-23T11:28:48;9.27;;;7.10;;
32196;SDS011;18697;42.770;23.400;2023-03-23T11:34:24;9.52;;;7.18;;
32196;SDS011;18697;42.770;23.400;2023-03-23T11:36:57;8.30;;;6.93;;
32196;SDS011;18697;42.770;23.400;2023-03-23T11:39:48;8.43;;;6.45;;
32196;SDS011;18697;42.770;23.400;2023-03-23T11:42:21;10.20;;;6.80;;
32196;SDS011;18697;42.770;23.400;2023-03-23T11:44:53;7.88;;;5.93;;
32196;SDS011;18697;42.770;23.400;2023-03-23T11:47:24;5.97;;;5.35;;
32196;SDS011;18697;42.770;23.400;2023-03-23T11:50:00;7.82;;;6.43;;
32196;SDS011;18697;42.770;23.400;2023-03-23T11:55:12;5.97;;;5.38;;
32196;SDS011;18697;42.770;23.400;2023-03-23T11:57:40;8.07;;;5.55;;
32196;SDS011;18697;42.770;23.400;2023-03-23T12:00:16;9.18;;;6.82;;
32196;SDS011;18697;42.770;23.400;2023-03-23T12:02:48;9.45;;;6.90;;
32196;SDS011;18697;42.770;23.400;2023-03-23T12:22:44;6.55;;;5.57;;
32196;SDS011;18697;42.770;23.400;2023-03-23T12:30:31;7.20;;;6.22;;
32196;SDS011;18697;42.770;23.400;2023-03-23T12:36:16;8.07;;;6.53;;
32196;SDS011;18697;42.770;23.400;2023-03-23T12:38:57;6.10;;;5.50;;
32196;SDS011;18697;42.770;23.400;2023-03-23T12:41:49;9.63;;;6.25;;
32196;SDS011;18697;42.770;23.400;2023-03-23T12:44:52;6.53;;;5.90;;
32196;SDS011;18697;42.770;23.400;2023-03-23T12:50:30;7.75;;;6.47;;
32196;SDS011;18697;42.770;23.400;2023-03-23T12:58:19;6.82;;;5.80;;
32196;SDS011;18697;42.770;23.400;2023-03-23T13:03:33;18.15;;;10.75;;
32196;SDS011;18697;42.770;23.400;2023-03-23T13:06:15;8.10;;;6.07;;
32196;SDS011;18697;42.770;23.400;2023-03-23T13:11:52;9.82;;;6.20;;
32196;SDS011;18697;42.770;23.400;2023-03-23T13:22:24;7.75;;;6.28;;
32196;SDS011;18697;42.770;23.400;2023-03-23T13:24:57;6.95;;;6.03;;
32196;SDS011;18697;42.770;23.400;2023-03-23T13:27:26;9.30;;;6.80;;
32196;SDS011;18697;42.770;23.400;2023-03-23T13:29:53;9.43;;;7.53;;
32196;SDS011;18697;42.770;23.400;2023-03-23T13:32:19;11.00;;;6.95;;
32196;SDS011;18697;42.770;23.400;2023-03-23T13:34:46;9.68;;;6.75;;
32196;SDS011;18697;42.770;23.400;2023-03-23T13:42:50;8.23;;;6.25;;
32196;SDS011;18697;42.770;23.400;2023-03-23T13:53:27;12.00;;;6.00;;
32196;SDS011;18697;42.770;23.400;2023-03-23T13:58:50;7.90;;;6.18;;
32196;SDS011;18697;42.770;23.400;2023-03-23T14:01:30;7.13;;;6.03;;
32196;SDS011;18697;42.770;23.400;2023-03-23T14:04:00;8.38;;;6.50;;
32196;SDS011;18697;42.770;23.400;2023-03-23T14:06:33;9.00;;;6.30;;
32196;SDS011;18697;42.770;23.400;2023-03-23T14:09:04;12.98;;;9.20;;
32196;SDS011;18697;42.770;23.400;2023-03-23T14:11:34;8.30;;;5.97;;
32196;SDS011;18697;42.770;23.400;2023-03-23T14:14:14;20.85;;;15.73;;
32196;SDS011;18697;42.770;23.400;2023-03-23T14:16:48;18.63;;;14.98;;
32196;SDS011;18697;42.770;23.400;2023-03-23T14:19:24;12.88;;;9.07;;
32196;SDS011;18697;42.770;23.400;2023-03-23T14:21:56;12.18;;;9.50;;
32196;SDS011;18697;42.770;23.400;2023-03-23T14:24:27;14.57;;;12.02;;
32196;SDS011;18697;42.770;23.400;2023-03-23T14:27:11;149.63;;;109.93;;
32196;SDS011;18697;42.770;23.400;2023-03-23T14:29:41;19.50;;;10.10;;
32196;SDS011;18697;42.770;23.400;2023-03-23T14:32:09;16.33;;;10.85;;
32196;SDS011;18697;42.770;23.400;2023-03-23T14:34:39;13.57;;;9.90;;
32196;SDS011;18697;42.770;23.400;2023-03-23T14:37:05;15.13;;;11.63;;
32196;SDS011;18697;42.770;23.400;2023-03-23T14:39:38;13.70;;;6.78;;
32196;SDS011;18697;42.770;23.400;2023-03-23T14:42:05;12.55;;;10.23;;
32196;SDS011;18697;42.770;23.400;2023-03-23T14:44:38;11.38;;;9.07;;
32196;SDS011;18697;42.770;23.400;2023-03-23T14:47:24;13.77;;;10.38;;
32196;SDS011;18697;42.770;23.400;2023-03-23T14:49:53;38.28;;;31.17;;
32196;SDS011;18697;42.770;23.400;2023-03-23T14:52:21;23.95;;;19.90;;
32196;SDS011;18697;42.770;23.400;2023-03-23T14:54:49;9.40;;;7.03;;
32196;SDS011;18697;42.770;23.400;2023-03-23T14:57:16;7.18;;;6.40;;
32196;SDS011;18697;42.770;23.400;2023-03-23T14:59:54;10.43;;;6.93;;
32196;SDS011;18697;42.770;23.400;2023-03-23T15:02:28;10.98;;;8.02;;
32196;SDS011;18697;42.770;23.400;2023-03-23T15:07:38;14.70;;;9.75;;
32196;SDS011;18697;42.770;23.400;2023-03-23T15:10:06;13.98;;;7.65;;
32196;SDS011;18697;42.770;23.400;2023-03-23T15:12:34;11.23;;;6.63;;
32196;SDS011;18697;42.770;23.400;2023-03-23T15:15:04;8.63;;;7.07;;
32196;SDS011;18697;42.770;23.400;2023-03-23T15:17:35;9.60;;;5.75;;
32196;SDS011;18697;42.770;23.400;2023-03-23T15:20:22;11.85;;;6.40;;
32196;SDS011;18697;42.770;23.400;2023-03-23T15:22:48;9.25;;;6.28;;
32196;SDS011;18697;42.770;23.400;2023-03-23T15:25:18;6.80;;;5.90;;
32196;SDS011;18697;42.770;23.400;2023-03-23T15:27:54;9.45;;;5.32;;
32196;SDS011;18697;42.770;23.400;2023-03-23T15:32:46;8.98;;;7.25;;
32196;SDS011;18697;42.770;23.400;2023-03-23T15:35:14;7.03;;;5.95;;
32196;SDS011;18697;42.770;23.400;2023-03-23T15:37:42;23.10;;;15.95;;
32196;SDS011;18697;42.770;23.400;2023-03-23T15:40:16;7.38;;;5.80;;
32196;SDS011;18697;42.770;23.400;2023-03-23T15:42:44;8.13;;;5.70;;
32196;SDS011;18697;42.770;23.400;2023-03-23T15:50:22;8.65;;;7.72;;
32196;SDS011;18697;42.770;23.400;2023-03-23T15:52:58;12.05;;;9.27;;
32196;SDS011;18697;42.770;23.400;2023-03-23T15:55:40;11.10;;;6.30;;
32196;SDS011;18697;42.770;23.400;2023-03-23T15:58:10;9.00;;;7.45;;
32196;SDS011;18697;42.770;23.400;2023-03-23T16:00:37;17.48;;;13.68;;
32196;SDS011;18697;42.770;23.400;2023-03-23T16:03:04;8.70;;;5.53;;
32196;SDS011;18697;42.770;23.400;2023-03-23T16:05:32;9.05;;;5.88;;
32196;SDS011;18697;42.770;23.400;2023-03-23T16:07:59;9.90;;;6.05;;
32196;SDS011;18697;42.770;23.400;2023-03-23T16:10:25;7.63;;;6.22;;
32196;SDS011;18697;42.770;23.400;2023-03-23T16:12:51;8.60;;;6.22;;
32196;SDS011;18697;42.770;23.400;2023-03-23T16:15:17;7.13;;;5.63;;
32196;SDS011;18697;42.770;23.400;2023-03-23T16:20:15;7.88;;;6.28;;
32196;SDS011;18697;42.770;23.400;2023-03-23T16:22:46;6.65;;;5.82;;
32196;SDS011;18697;42.770;23.400;2023-03-23T16:25:13;7.32;;;5.50;;
32196;SDS011;18697;42.770;23.400;2023-03-23T16:27:39;9.10;;;7.25;;
32196;SDS011;18697;42.770;23.400;2023-03-23T16:30:18;16.70;;;6.93;;
32196;SDS011;18697;42.770;23.400;2023-03-23T16:32:51;13.40;;;8.07;;
32196;SDS011;18697;42.770;23.400;2023-03-23T16:35:18;15.85;;;10.25;;
32196;SDS011;18697;42.770;23.400;2023-03-23T16:37:45;25.67;;;11.75;;
32196;SDS011;18697;42.770;23.400;2023-03-23T16:40:12;39.10;;;21.13;;
32196;SDS011;18697;42.770;23.400;2023-03-23T16:42:39;51.83;;;28.67;;
32196;SDS011;18697;42.770;23.400;2023-03-23T16:45:05;56.15;;;28.83;;
32196;SDS011;18697;42.770;23.400;2023-03-23T16:47:31;94.70;;;44.00;;
32196;SDS011;18697;42.770;23.400;2023-03-23T16:49:56;51.35;;;22.88;;
32196;SDS011;18697;42.770;23.400;2023-03-23T16:52:22;64.80;;;30.10;;
32196;SDS011;18697;42.770;23.400;2023-03-23T16:57:12;73.45;;;34.60;;